createdAt,value
2018-11-01T00:01:20.863Z,6.40
2018-11-01T00:03:51.172Z,6.50
2018-11-01T00:06:21.495Z,6.60
2018-11-01T00:08:51.781Z,6.40
2018-11-01T00:11:22.121Z,6.40
2018-11-01T00:13:52.482Z,6.40
2018-11-01T00:16:22.978Z,6.40
2018-11-01T00:18:53.496Z,6.50
2018-11-01T00:21:23.838Z,6.50
2018-11-01T00:23:54.128Z,6.40
2018-11-01T00:26:24.449Z,6.40
2018-11-01T00:28:54.755Z,6.60
2018-11-01T00:31:25.125Z,6.40
2018-11-01T00:33:55.457Z,6.50
2018-11-01T00:36:25.790Z,6.50
2018-11-01T00:38:56.081Z,6.50
2018-11-01T00:41:26.427Z,6.40
2018-11-01T00:43:56.867Z,6.40
2018-11-01T00:46:27.204Z,6.40
2018-11-01T00:48:57.499Z,6.20
2018-11-01T00:51:27.846Z,6.20
2018-11-01T00:53:58.147Z,6.50
2018-11-01T00:56:28.485Z,6.40
2018-11-01T00:58:58.939Z,6.30
2018-11-01T01:01:29.290Z,6.20
2018-11-01T01:03:59.606Z,6.20
2018-11-01T01:06:29.982Z,6.10
2018-11-01T01:09:00.269Z,6.10
2018-11-01T01:11:30.602Z,6.10
2018-11-01T01:14:00.923Z,6.30
2018-11-01T01:16:31.248Z,6.20
2018-11-01T01:19:01.643Z,6.10
2018-11-01T01:21:31.902Z,6.10
2018-11-01T01:24:02.209Z,6.10
2018-11-01T01:26:32.685Z,6.10
2018-11-01T01:29:02.994Z,6.20
2018-11-01T01:31:33.333Z,6.00
2018-11-01T01:34:04.013Z,6.00
2018-11-01T01:36:34.439Z,6.00
2018-11-01T01:39:06.789Z,6.00
2018-11-01T01:41:37.586Z,5.90
2018-11-01T01:44:08.201Z,5.90
2018-11-01T01:46:38.674Z,5.90
2018-11-01T01:49:09.873Z,5.90
2018-11-01T01:51:40.177Z,6.10
2018-11-01T01:54:10.550Z,5.90
2018-11-01T01:56:40.887Z,5.70
2018-11-01T01:59:11.207Z,5.70
2018-11-01T02:01:41.526Z,5.70
2018-11-01T02:04:11.778Z,5.60
2018-11-01T02:06:42.081Z,5.60
2018-11-01T02:09:13.479Z,5.70
2018-11-01T02:11:44.615Z,5.70
2018-11-01T02:14:14.914Z,5.70
2018-11-01T02:16:45.277Z,5.70
2018-11-01T02:19:15.694Z,5.70
2018-11-01T02:21:46.061Z,5.70
2018-11-01T02:24:16.380Z,5.60
2018-11-01T02:26:47.026Z,5.70
2018-11-01T02:29:17.428Z,5.70
2018-11-01T02:31:47.779Z,5.80
2018-11-01T02:34:18.082Z,5.60
2018-11-01T02:36:48.404Z,5.60
2018-11-01T02:39:18.707Z,5.30
2018-11-01T02:41:49.036Z,5.40
2018-11-01T02:44:19.297Z,5.40
2018-11-01T02:46:49.627Z,5.40
2018-11-01T02:49:19.925Z,5.40
2018-11-01T02:51:50.234Z,5.50
2018-11-01T02:54:20.614Z,5.40
2018-11-01T02:56:50.914Z,5.40
2018-11-01T02:59:21.185Z,5.20
2018-11-01T03:01:51.520Z,5.30
2018-11-01T03:04:21.851Z,5.30
2018-11-01T03:06:52.293Z,5.20
2018-11-01T03:09:22.574Z,5.40
2018-11-01T03:11:53.065Z,5.60
2018-11-01T03:14:24.096Z,5.40
2018-11-01T03:16:54.724Z,5.30
2018-11-01T03:19:25.104Z,5.60
2018-11-01T03:21:55.421Z,5.50
2018-11-01T03:24:25.909Z,5.40
2018-11-01T03:26:56.221Z,5.70
2018-11-01T03:29:26.684Z,5.60
2018-11-01T03:31:57.017Z,5.50
2018-11-01T03:34:27.325Z,5.40
2018-11-01T03:36:57.726Z,5.50
2018-11-01T03:39:28.405Z,5.50
2018-11-01T03:41:59.213Z,5.70
2018-11-01T03:44:30.066Z,5.70
2018-11-01T03:47:00.384Z,5.70
2018-11-01T03:49:30.997Z,5.70
2018-11-01T03:52:01.377Z,5.90
2018-11-01T03:54:31.662Z,5.90
2018-11-01T03:57:01.981Z,5.80
2018-11-01T03:59:32.270Z,5.80
2018-11-01T04:02:02.583Z,5.70
2018-11-01T04:04:33.895Z,5.80
2018-11-01T04:07:04.222Z,5.70
2018-11-01T04:09:34.524Z,5.80
2018-11-01T04:12:04.847Z,5.80
2018-11-01T04:14:35.130Z,5.70
2018-11-01T04:17:05.591Z,6.00
2018-11-01T04:19:36.057Z,5.80
2018-11-01T04:22:07.249Z,5.90
2018-11-01T04:24:38.245Z,6.00
2018-11-01T04:27:08.564Z,5.90
2018-11-01T04:29:39.336Z,5.90
2018-11-01T04:32:09.617Z,6.10
2018-11-01T04:34:39.985Z,5.90
2018-11-01T04:37:10.274Z,5.90
2018-11-01T04:39:40.493Z,5.90
2018-11-01T04:42:10.753Z,5.70
2018-11-01T04:44:41.001Z,5.90
2018-11-01T04:47:11.269Z,5.90
2018-11-01T04:49:41.865Z,6.00
2018-11-01T04:52:12.126Z,6.10
2018-11-01T04:54:42.409Z,6.10
2018-11-01T04:57:12.674Z,6.20
2018-11-01T04:59:42.923Z,6.10
2018-11-01T05:02:13.197Z,6.10
2018-11-01T05:04:43.417Z,6.10
2018-11-01T05:07:13.694Z,6.00
2018-11-01T05:09:43.939Z,6.10
2018-11-01T05:12:14.199Z,6.20
2018-11-01T05:14:44.439Z,6.40
2018-11-01T05:17:14.719Z,6.50
2018-11-01T05:19:44.966Z,6.30
2018-11-01T05:22:15.246Z,6.30
2018-11-01T05:24:45.468Z,6.40
2018-11-01T05:27:15.745Z,6.40
2018-11-01T05:29:45.984Z,6.50
2018-11-01T05:32:16.327Z,6.50
2018-11-01T05:34:46.705Z,6.50
2018-11-01T05:37:17.034Z,6.60
2018-11-01T05:39:47.337Z,6.50
2018-11-01T05:42:17.712Z,6.40
2018-11-01T05:44:48.031Z,6.40
2018-11-01T05:47:18.459Z,6.50
2018-11-01T05:49:48.761Z,6.60
2018-11-01T05:52:19.141Z,6.70
2018-11-01T05:54:50.038Z,6.70
2018-11-01T05:57:20.682Z,6.70
2018-11-01T05:59:51.029Z,6.80
2018-11-01T06:02:26.016Z,6.80
2018-11-01T06:04:56.757Z,6.90
2018-11-01T06:08:04.466Z,7.00
2018-11-01T06:10:34.807Z,6.80
2018-11-01T06:13:05.261Z,7.10
2018-11-01T06:15:35.982Z,7.00
2018-11-01T06:18:06.741Z,6.90
2018-11-01T06:20:37.143Z,7.00
2018-11-01T06:23:07.590Z,7.00
2018-11-01T06:25:37.999Z,6.90
2018-11-01T06:28:08.325Z,7.00
2018-11-01T06:30:38.718Z,6.70
2018-11-01T06:33:10.113Z,6.80
2018-11-01T06:35:44.683Z,6.80
2018-11-01T06:38:15.034Z,6.80
2018-11-01T06:40:45.269Z,6.60
2018-11-01T06:43:15.526Z,6.80
2018-11-01T06:45:45.770Z,6.90
2018-11-01T06:48:16.023Z,7.00
2018-11-01T06:50:46.318Z,7.00
2018-11-01T06:53:16.537Z,7.20
2018-11-01T06:55:46.799Z,7.30
2018-11-01T06:58:17.095Z,7.40
2018-11-01T07:00:47.362Z,7.50
2018-11-01T07:03:17.604Z,7.40
2018-11-01T07:05:47.893Z,7.40
2018-11-01T07:08:18.158Z,7.40
2018-11-01T07:10:48.422Z,7.30
2018-11-01T07:13:18.671Z,7.40
2018-11-01T07:15:49.155Z,7.40
2018-11-01T07:18:19.374Z,7.70
2018-11-01T07:20:49.655Z,7.60
2018-11-01T07:23:19.926Z,7.60
2018-11-01T07:25:50.279Z,7.50
2018-11-01T07:28:21.338Z,7.70
2018-11-01T07:30:51.997Z,7.80
2018-11-01T07:33:22.390Z,7.70
2018-11-01T07:35:53.064Z,7.90
2018-11-01T07:38:23.613Z,8.00
2018-11-01T07:40:54.365Z,7.70
2018-11-01T07:43:24.642Z,7.90
2018-11-01T07:45:55.457Z,8.00
2018-11-01T07:48:25.779Z,8.10
2018-11-01T07:50:56.094Z,8.40
2018-11-01T07:53:26.545Z,8.30
2018-11-01T07:55:56.922Z,8.50
2018-11-01T07:58:27.357Z,8.50
2018-11-01T08:00:57.876Z,8.40
2018-11-01T08:03:28.214Z,8.40
2018-11-01T08:05:58.996Z,8.40
2018-11-01T08:08:29.757Z,8.40
2018-11-01T08:11:00.085Z,8.60
2018-11-01T08:13:30.378Z,8.40
2018-11-01T08:16:00.766Z,7.90
2018-11-01T08:18:31.189Z,8.40
2018-11-01T08:21:01.589Z,8.40
2018-11-01T08:23:32.910Z,8.20
2018-11-01T08:26:03.262Z,8.50
2018-11-01T08:28:33.595Z,8.70
2018-11-01T08:31:05.026Z,8.90
2018-11-01T08:33:35.349Z,9.10
2018-11-01T08:36:05.660Z,9.30
2018-11-01T08:38:36.112Z,9.30
2018-11-01T08:41:06.911Z,9.20
2018-11-01T08:43:37.145Z,9.30
2018-11-01T08:46:07.533Z,9.50
2018-11-01T08:48:38.030Z,9.80
2018-11-01T08:51:08.336Z,10.00
2018-11-01T08:53:38.937Z,10.30
2018-11-01T08:56:09.209Z,10.40
2018-11-01T08:58:39.461Z,10.30
2018-11-01T09:01:09.758Z,10.40
2018-11-01T09:03:40.071Z,10.60
2018-11-01T09:06:10.601Z,10.70
2018-11-01T09:08:40.954Z,10.60
2018-11-01T09:11:11.217Z,10.70
2018-11-01T09:13:41.837Z,11.30
2018-11-01T09:16:12.146Z,11.00
2018-11-01T09:18:42.374Z,10.90
2018-11-01T09:21:12.679Z,11.10
2018-11-01T09:23:42.918Z,11.10
2018-11-01T09:26:13.199Z,11.10
2018-11-01T09:28:43.455Z,11.50
2018-11-01T09:31:14.037Z,11.30
2018-11-01T09:33:44.612Z,11.20
2018-11-01T09:36:14.874Z,11.50
2018-11-01T09:38:45.106Z,11.60
2018-11-01T09:41:15.378Z,11.70
2018-11-01T09:43:45.612Z,11.90
2018-11-01T09:46:16.018Z,11.90
2018-11-01T09:48:46.133Z,12.00
2018-11-01T09:51:16.555Z,12.30
2018-11-01T09:53:46.799Z,12.40
2018-11-01T09:56:17.168Z,12.60
2018-11-01T09:58:47.357Z,12.40
2018-11-01T10:01:17.731Z,12.60
2018-11-01T10:03:47.963Z,12.60
2018-11-01T10:06:18.410Z,12.80
2018-11-01T10:08:48.645Z,12.80
2018-11-01T10:11:18.945Z,13.20
2018-11-01T10:13:49.191Z,14.20
2018-11-01T10:16:19.603Z,15.60
2018-11-01T10:18:49.929Z,16.20
2018-11-01T10:21:20.498Z,17.20
2018-11-01T10:23:50.709Z,18.30
2018-11-01T10:26:20.983Z,19.00
2018-11-01T10:28:51.486Z,19.90
2018-11-01T10:31:21.760Z,20.30
2018-11-01T10:33:52.138Z,20.20
2018-11-01T10:36:22.426Z,18.90
2018-11-01T10:38:52.722Z,18.80
2018-11-01T10:41:23.033Z,18.80
2018-11-01T10:43:53.359Z,18.30
2018-11-01T10:46:25.117Z,19.20
2018-11-01T10:48:55.419Z,20.00
2018-11-01T10:51:25.898Z,20.40
2018-11-01T10:53:56.348Z,20.00
2018-11-01T10:56:26.747Z,18.90
2018-11-01T10:58:57.151Z,20.10
2018-11-01T11:01:32.773Z,22.00
2018-11-01T11:04:03.107Z,23.70
2018-11-01T11:06:33.532Z,24.20
2018-11-01T11:09:05.097Z,25.00
2018-11-01T11:11:35.453Z,26.30
2018-11-01T11:14:06.373Z,27.70
2018-11-01T11:16:36.755Z,28.90
2018-11-01T11:19:07.370Z,29.80
2018-11-01T11:21:37.731Z,30.70
2018-11-01T11:24:08.021Z,31.10
2018-11-01T11:26:38.337Z,31.70
2018-11-01T11:29:08.692Z,32.30
2018-11-01T11:31:39.058Z,32.10
2018-11-01T11:34:11.381Z,32.70
2018-11-01T11:36:41.766Z,32.10
2018-11-01T11:39:13.173Z,32.40
2018-11-01T11:41:43.738Z,33.30
2018-11-01T11:44:14.054Z,33.10
2018-11-01T11:46:45.058Z,34.40
2018-11-01T11:49:15.369Z,35.20
2018-11-01T11:51:45.823Z,35.60
2018-11-01T11:54:16.104Z,35.30
2018-11-01T11:56:46.466Z,35.10
2018-11-01T11:59:16.857Z,35.50
2018-11-01T12:01:47.263Z,35.50
2018-11-01T12:04:17.571Z,36.10
2018-11-01T12:06:47.893Z,36.30
2018-11-01T12:09:18.215Z,36.70
2018-11-01T12:11:48.526Z,36.90
2018-11-01T12:14:18.933Z,35.90
2018-11-01T12:16:49.134Z,34.10
2018-11-01T12:19:19.413Z,35.40
2018-11-01T12:21:49.731Z,35.70
2018-11-01T12:24:20.304Z,35.50
2018-11-01T12:26:50.626Z,35.20
2018-11-01T12:29:20.956Z,35.20
2018-11-01T12:31:51.286Z,35.80
2018-11-01T12:34:21.615Z,35.50
2018-11-01T12:36:52.058Z,35.50
2018-11-01T12:39:22.353Z,35.50
2018-11-01T12:41:52.687Z,35.30
2018-11-01T12:44:22.981Z,35.10
2018-11-01T12:46:53.328Z,35.10
2018-11-01T12:49:23.650Z,35.20
2018-11-01T12:51:53.963Z,35.30
2018-11-01T12:54:24.252Z,33.50
2018-11-01T12:56:54.567Z,31.50
2018-11-01T12:59:24.845Z,30.40
2018-11-01T13:01:55.163Z,30.80
2018-11-01T13:04:25.450Z,28.60
2018-11-01T13:06:55.770Z,27.40
2018-11-01T13:09:26.048Z,28.00
2018-11-01T13:11:56.366Z,28.40
2018-11-01T13:14:26.663Z,28.30
2018-11-01T13:16:57.023Z,27.10
2018-11-01T13:19:27.313Z,25.80
2018-11-01T13:21:57.638Z,25.40
2018-11-01T13:24:27.922Z,24.90
2018-11-01T13:26:58.225Z,24.40
2018-11-01T13:29:28.649Z,25.20
2018-11-01T13:31:58.880Z,25.10
2018-11-01T13:34:29.168Z,24.70
2018-11-01T13:36:59.446Z,24.40
2018-11-01T13:39:29.813Z,24.90
2018-11-01T13:41:59.994Z,25.20
2018-11-01T13:44:30.225Z,25.10
2018-11-01T13:47:00.556Z,25.50
2018-11-01T13:49:30.800Z,26.10
2018-11-01T13:52:01.121Z,26.40
2018-11-01T13:54:31.483Z,27.20
2018-11-01T13:57:01.687Z,27.30
2018-11-01T13:59:31.990Z,26.70
2018-11-01T14:02:02.248Z,27.00
2018-11-01T14:04:32.565Z,27.10
2018-11-01T14:07:02.810Z,27.60
2018-11-01T14:09:33.077Z,27.30
2018-11-01T14:12:03.351Z,27.50
2018-11-01T14:14:34.059Z,27.40
2018-11-01T14:17:03.897Z,26.80
2018-11-01T14:19:34.173Z,27.20
2018-11-01T14:22:04.558Z,26.80
2018-11-01T14:24:34.831Z,26.90
2018-11-01T14:27:05.116Z,26.70
2018-11-01T14:29:35.343Z,26.10
2018-11-01T14:32:05.628Z,26.50
2018-11-01T14:34:35.988Z,25.60
2018-11-01T14:37:06.334Z,25.80
2018-11-01T14:39:36.671Z,25.60
2018-11-01T14:42:07.011Z,24.20
2018-11-01T14:44:37.446Z,22.30
2018-11-01T14:47:08.081Z,19.90
2018-11-01T14:49:38.394Z,19.00
2018-11-01T14:52:09.036Z,17.50
2018-11-01T14:54:40.054Z,16.60
2018-11-01T14:57:10.265Z,15.90
2018-11-01T14:59:40.583Z,15.40
2018-11-01T15:02:09.920Z,14.90
2018-11-01T15:04:40.222Z,15.00
2018-11-01T15:07:10.538Z,14.80
2018-11-01T15:09:40.849Z,14.40
2018-11-01T15:12:11.124Z,14.30
2018-11-01T15:14:41.967Z,14.20
2018-11-01T15:17:13.111Z,13.80
2018-11-01T15:19:43.446Z,13.60
2018-11-01T15:22:13.712Z,13.10
2018-11-01T15:24:44.072Z,13.20
2018-11-01T15:27:14.354Z,13.10
2018-11-01T15:29:44.691Z,13.00
2018-11-01T15:32:20.250Z,12.90
2018-11-01T15:34:50.556Z,12.90
2018-11-01T15:37:20.874Z,12.80
2018-11-01T15:39:51.169Z,12.90
2018-11-01T15:42:21.349Z,12.90
2018-11-01T15:44:51.738Z,12.80
2018-11-01T15:47:21.966Z,12.60
2018-11-01T15:49:52.242Z,12.40
2018-11-01T15:52:22.478Z,12.30
2018-11-01T15:54:52.775Z,11.80
2018-11-01T15:57:23.051Z,11.70
2018-11-01T15:59:53.426Z,12.00
2018-11-01T16:02:23.723Z,11.90
2018-11-01T16:04:53.958Z,11.50
2018-11-01T16:07:24.255Z,11.50
2018-11-01T16:09:54.517Z,11.40
2018-11-01T16:12:24.778Z,11.20
2018-11-01T16:14:55.073Z,11.20
2018-11-01T16:17:25.327Z,11.00
2018-11-01T16:19:55.686Z,10.90
2018-11-01T16:22:25.882Z,10.90
2018-11-01T16:24:56.177Z,10.90
2018-11-01T16:27:26.472Z,10.80
2018-11-01T16:29:56.770Z,10.70
2018-11-01T16:32:26.998Z,10.60
2018-11-01T16:34:57.342Z,10.50
2018-11-01T16:37:27.646Z,10.20
2018-11-01T16:39:57.999Z,10.40
2018-11-01T16:42:28.698Z,10.30
2018-11-01T16:44:58.759Z,10.30
2018-11-01T16:47:29.074Z,10.00
2018-11-01T16:49:59.431Z,10.10
2018-11-01T16:52:29.777Z,10.30
2018-11-01T16:55:00.087Z,10.20
2018-11-01T16:57:30.502Z,10.30
2018-11-01T17:00:00.821Z,10.20
2018-11-01T17:02:31.137Z,10.20
2018-11-01T17:05:01.459Z,9.90
2018-11-01T17:07:31.763Z,9.90
2018-11-01T17:10:02.171Z,9.90
2018-11-01T17:12:32.466Z,9.80
2018-11-01T17:15:02.822Z,9.70
2018-11-01T17:17:33.196Z,9.60
2018-11-01T17:20:03.543Z,9.50
2018-11-01T17:22:33.858Z,9.50
2018-11-01T17:25:04.329Z,9.50
2018-11-01T17:27:34.577Z,9.10
2018-11-01T17:30:06.571Z,9.20
2018-11-01T17:32:42.138Z,9.20
2018-11-01T17:35:12.460Z,9.10
2018-11-01T17:37:42.734Z,9.20
2018-11-01T17:40:13.178Z,9.10
2018-11-01T17:42:44.887Z,9.10
2018-11-01T17:45:15.170Z,9.10
2018-11-01T17:47:45.437Z,9.00
2018-11-01T17:50:16.951Z,8.90
2018-11-01T17:52:47.178Z,9.10
2018-11-01T17:55:17.460Z,9.10
2018-11-01T17:57:47.685Z,9.00
2018-11-01T18:00:18.193Z,8.70
2018-11-01T18:02:48.472Z,8.80
2018-11-01T18:05:18.991Z,8.60
2018-11-01T18:07:49.218Z,8.70
2018-11-01T18:10:19.499Z,8.50
2018-11-01T18:12:49.725Z,8.60
2018-11-01T18:15:20.014Z,8.60
2018-11-01T18:17:50.287Z,8.50
2018-11-01T18:20:20.581Z,8.50
2018-11-01T18:22:50.862Z,8.40
2018-11-01T18:25:21.163Z,8.40
2018-11-01T18:27:51.553Z,8.40
2018-11-01T18:30:21.976Z,8.30
2018-11-01T18:32:52.415Z,8.30
2018-11-01T18:35:22.678Z,8.60
2018-11-01T18:37:52.909Z,8.10
2018-11-01T18:40:23.167Z,8.10
2018-11-01T18:42:53.461Z,8.20
2018-11-01T18:45:23.679Z,8.20
2018-11-01T18:47:53.954Z,8.20
2018-11-01T18:50:25.093Z,8.20
2018-11-01T18:52:55.650Z,8.10
2018-11-01T18:55:26.107Z,7.90
2018-11-01T18:57:57.210Z,7.90
2018-11-01T19:00:27.888Z,7.80
2018-11-01T19:02:58.401Z,8.10
2018-11-01T19:05:28.773Z,7.90
2018-11-01T19:07:59.465Z,7.60
2018-11-01T19:10:29.783Z,7.80
2018-11-01T19:13:00.385Z,7.90
2018-11-01T19:15:30.921Z,7.60
2018-11-01T19:18:01.743Z,7.80
2018-11-01T19:20:32.048Z,7.40
2018-11-01T19:23:02.318Z,7.40
2018-11-01T19:25:32.715Z,7.50
2018-11-01T19:28:03.067Z,7.60
2018-11-01T19:30:33.698Z,7.50
2018-11-01T19:33:05.146Z,7.40
2018-11-01T19:35:37.104Z,7.50
2018-11-01T19:38:08.166Z,7.30
2018-11-01T19:40:39.621Z,7.50
2018-11-01T19:43:10.028Z,7.50
2018-11-01T19:45:40.901Z,7.30
2018-11-01T19:48:11.549Z,7.20
2018-11-01T19:50:43.151Z,7.10
2018-11-01T19:53:18.405Z,7.00
2018-11-01T19:55:49.204Z,7.00
2018-11-01T19:58:28.848Z,7.00
2018-11-01T20:01:01.413Z,7.20
2018-11-01T20:03:33.729Z,7.00
2018-11-01T20:06:04.237Z,7.20
2018-11-01T20:08:34.818Z,6.90
2018-11-01T20:11:05.620Z,6.90
2018-11-01T20:13:35.978Z,6.80
2018-11-01T20:16:06.621Z,6.90
2018-11-01T20:18:37.801Z,6.90
2018-11-01T20:21:09.099Z,6.80
2018-11-01T20:23:40.104Z,6.80
2018-11-01T20:26:11.706Z,6.80
2018-11-01T20:28:44.447Z,6.80
2018-11-01T20:31:15.978Z,6.70
2018-11-01T20:33:47.639Z,6.60
2018-11-01T20:36:18.941Z,6.70
2018-11-01T20:38:51.000Z,6.60
2018-11-01T20:41:22.739Z,6.50
2018-11-01T20:43:54.807Z,6.60
2018-11-01T20:46:26.395Z,6.30
2018-11-01T20:48:57.745Z,6.40
2018-11-01T20:51:29.869Z,6.20
2018-11-01T20:54:01.034Z,6.20
2018-11-01T20:56:33.124Z,6.30
2018-11-01T20:59:04.322Z,6.40
2018-11-01T21:01:35.427Z,6.70
2018-11-01T21:04:07.559Z,6.70
2018-11-01T21:06:38.664Z,6.50
2018-11-01T21:09:11.670Z,6.40
2018-11-01T21:11:43.226Z,6.50
2018-11-01T21:14:14.341Z,6.50
2018-11-01T21:16:45.505Z,6.40
2018-11-01T21:19:17.894Z,6.50
2018-11-01T21:21:49.149Z,6.20
2018-11-01T21:24:20.472Z,6.40
2018-11-01T21:26:51.742Z,6.40
2018-11-01T21:29:23.058Z,6.20
2018-11-01T21:31:54.411Z,6.40
2018-11-01T21:34:26.070Z,6.10
2018-11-01T21:36:57.782Z,6.30
2018-11-01T21:39:29.185Z,6.30
2018-11-01T21:42:00.034Z,6.40
2018-11-01T21:44:31.554Z,6.10
2018-11-01T21:47:03.052Z,6.10
2018-11-01T21:49:34.178Z,6.10
2018-11-01T21:52:06.089Z,6.00
2018-11-01T21:54:37.913Z,5.60
2018-11-01T21:57:08.657Z,6.00
2018-11-01T21:59:40.129Z,5.90
2018-11-01T22:02:11.495Z,6.00
2018-11-01T22:04:42.295Z,6.10
2018-11-01T22:07:12.764Z,6.10
2018-11-01T22:09:43.829Z,6.00
2018-11-01T22:12:15.034Z,5.90
2018-11-01T22:14:47.025Z,5.90
2018-11-01T22:17:18.595Z,5.60
2018-11-01T22:19:50.274Z,5.70
2018-11-01T22:22:22.035Z,5.90
2018-11-01T22:24:53.799Z,5.60
2018-11-01T22:27:25.605Z,5.70
2018-11-01T22:29:57.238Z,5.50
2018-11-01T22:32:28.882Z,5.70
2018-11-01T22:35:00.976Z,5.70
2018-11-01T22:37:32.656Z,5.60
2018-11-01T22:40:04.040Z,5.40
2018-11-01T22:42:35.939Z,5.50
2018-11-01T22:45:10.233Z,5.40
2018-11-01T22:47:43.198Z,5.40
2018-11-01T22:50:15.162Z,5.30
2018-11-01T22:52:47.168Z,5.40
2018-11-01T22:55:18.993Z,5.40
2018-11-01T22:57:50.362Z,5.70
2018-11-01T23:00:22.257Z,5.50
2018-11-01T23:02:54.511Z,5.50
2018-11-01T23:05:26.070Z,5.50
2018-11-01T23:07:57.600Z,5.60
2018-11-01T23:10:28.478Z,5.40
2018-11-01T23:12:59.449Z,5.30
2018-11-01T23:15:31.448Z,5.40
2018-11-01T23:18:02.659Z,5.60
2018-11-01T23:20:33.600Z,5.50
2018-11-01T23:23:04.091Z,5.60
2018-11-01T23:25:34.850Z,5.50
2018-11-01T23:28:05.414Z,5.50
2018-11-01T23:30:36.424Z,5.50
2018-11-01T23:33:07.600Z,5.40
2018-11-01T23:35:38.888Z,5.30
2018-11-01T23:38:15.242Z,5.40
2018-11-01T23:40:51.973Z,5.40
2018-11-01T23:43:27.609Z,5.40
2018-11-01T23:46:03.147Z,5.40
2018-11-01T23:48:32.530Z,5.30
2018-11-01T23:51:12.264Z,5.40
2018-11-01T23:53:46.441Z,5.30
2018-11-01T23:56:17.045Z,5.40
2018-11-01T23:58:47.264Z,5.40
